sensor_id;sensor_type;location;lat;lon;timestamp;pressure;altitude;pressure_sealevel;temperature;humidity
78603;BME280;68102;46.068;18.206;2023-04-03T00:00:21;100058.47;;;5.48;63.60
78603;BME280;68102;46.068;18.206;2023-04-03T00:00:52;100057.72;;;5.46;63.63
78603;BME280;68102;46.068;18.206;2023-04-03T00:01:23;100063.41;;;5.53;63.67
78603;BME280;68102;46.068;18.206;2023-04-03T00:01:53;100075.44;;;5.56;63.97
78603;BME280;68102;46.068;18.206;2023-04-03T00:02:24;100070.41;;;5.53;63.55
78603;BME280;68102;46.068;18.206;2023-04-03T00:02:55;100060.44;;;5.45;63.28
78603;BME280;68102;46.068;18.206;2023-04-03T00:03:25;100055.94;;;5.47;63.25
78603;BME280;68102;46.068;18.206;2023-04-03T00:03:56;100046.91;;;5.38;63.33
78603;BME280;68102;46.068;18.206;2023-04-03T00:04:27;100066.53;;;5.45;63.21
78603;BME280;68102;46.068;18.206;2023-04-03T00:04:58;100077.09;;;5.44;63.44
78603;BME280;68102;46.068;18.206;2023-04-03T00:05:30;100060.44;;;5.45;63.47
78603;BME280;68102;46.068;18.206;2023-04-03T00:06:01;100059.34;;;5.35;63.47
78603;BME280;68102;46.068;18.206;2023-04-03T00:06:32;100069.72;;;5.36;63.75
78603;BME280;68102;46.068;18.206;2023-04-03T00:07:03;100044.06;;;5.29;64.23
78603;BME280;68102;46.068;18.206;2023-04-03T00:07:33;100066.38;;;5.34;63.78
78603;BME280;68102;46.068;18.206;2023-04-03T00:08:04;100068.34;;;5.31;63.83
78603;BME280;68102;46.068;18.206;2023-04-03T00:08:39;100067.19;;;5.35;64.13
78603;BME280;68102;46.068;18.206;2023-04-03T00:09:09;100052.84;;;5.28;63.32
78603;BME280;68102;46.068;18.206;2023-04-03T00:09:40;100059.84;;;5.27;63.64
78603;BME280;68102;46.068;18.206;2023-04-03T00:10:11;100053.69;;;5.28;63.53
78603;BME280;68102;46.068;18.206;2023-04-03T00:10:42;100061.53;;;5.28;63.79
78603;BME280;68102;46.068;18.206;2023-04-03T00:11:13;100065.63;;;5.32;63.28
78603;BME280;68102;46.068;18.206;2023-04-03T00:11:45;100053.25;;;5.22;63.56
78603;BME280;68102;46.068;18.206;2023-04-03T00:12:16;100062.16;;;5.32;63.93
78603;BME280;68102;46.068;18.206;2023-04-03T00:12:46;100062.38;;;5.29;63.89
78603;BME280;68102;46.068;18.206;2023-04-03T00:13:17;100068.25;;;5.32;63.70
78603;BME280;68102;46.068;18.206;2023-04-03T00:13:48;100069.47;;;5.27;63.96
78603;BME280;68102;46.068;18.206;2023-04-03T00:14:19;100068.53;;;5.28;64.00
78603;BME280;68102;46.068;18.206;2023-04-03T00:14:50;100067.81;;;5.26;64.04
78603;BME280;68102;46.068;18.206;2023-04-03T00:15:20;100050.63;;;5.22;63.77
78603;BME280;68102;46.068;18.206;2023-04-03T00:15:51;100049.59;;;5.24;63.89
78603;BME280;68102;46.068;18.206;2023-04-03T00:16:22;100077.44;;;5.25;64.45
78603;BME280;68102;46.068;18.206;2023-04-03T00:16:53;100068.66;;;5.26;64.82
78603;BME280;68102;46.068;18.206;2023-04-03T00:17:23;100065.09;;;5.27;63.98
78603;BME280;68102;46.068;18.206;2023-04-03T00:17:54;100055.47;;;5.28;63.40
78603;BME280;68102;46.068;18.206;2023-04-03T00:18:25;100067.72;;;5.27;63.54
78603;BME280;68102;46.068;18.206;2023-04-03T00:18:55;100068.75;;;5.25;64.23
78603;BME280;68102;46.068;18.206;2023-04-03T00:19:27;100068.00;;;5.23;63.99
78603;BME280;68102;46.068;18.206;2023-04-03T00:19:57;100066.03;;;5.26;63.95
78603;BME280;68102;46.068;18.206;2023-04-03T00:20:28;100056.59;;;5.24;64.17
78603;BME280;68102;46.068;18.206;2023-04-03T00:20:59;100070.31;;;5.27;64.40
78603;BME280;68102;46.068;18.206;2023-04-03T00:21:30;100066.88;;;5.27;64.13
78603;BME280;68102;46.068;18.206;2023-04-03T00:22:00;100061.25;;;5.18;64.38
78603;BME280;68102;46.068;18.206;2023-04-03T00:22:31;100061.72;;;5.25;64.20
78603;BME280;68102;46.068;18.206;2023-04-03T00:23:03;100068.66;;;5.26;63.34
78603;BME280;68102;46.068;18.206;2023-04-03T00:23:35;100055.19;;;5.18;63.60
78603;BME280;68102;46.068;18.206;2023-04-03T00:24:06;100071.56;;;5.22;63.68
78603;BME280;68102;46.068;18.206;2023-04-03T00:24:37;100057.91;;;5.16;63.97
78603;BME280;68102;46.068;18.206;2023-04-03T00:25:08;100064.03;;;5.30;64.12
78603;BME280;68102;46.068;18.206;2023-04-03T00:25:39;100071.81;;;5.31;64.02
78603;BME280;68102;46.068;18.206;2023-04-03T00:26:10;100073.69;;;5.29;63.50
78603;BME280;68102;46.068;18.206;2023-04-03T00:26:41;100065.94;;;5.28;63.83
78603;BME280;68102;46.068;18.206;2023-04-03T00:27:12;100078.19;;;5.27;64.26
78603;BME280;68102;46.068;18.206;2023-04-03T00:27:42;100070.97;;;5.31;64.23
78603;BME280;68102;46.068;18.206;2023-04-03T00:28:13;100064.88;;;5.30;63.89
78603;BME280;68102;46.068;18.206;2023-04-03T00:28:43;100056.41;;;5.27;63.96
78603;BME280;68102;46.068;18.206;2023-04-03T00:29:15;100072.63;;;5.32;64.50
78603;BME280;68102;46.068;18.206;2023-04-03T00:29:46;100065.00;;;5.29;63.50
78603;BME280;68102;46.068;18.206;2023-04-03T00:30:19;100069.69;;;5.24;63.55
78603;BME280;68102;46.068;18.206;2023-04-03T00:30:51;100049.59;;;5.24;64.13
78603;BME280;68102;46.068;18.206;2023-04-03T00:31:22;100071.69;;;5.33;63.80
78603;BME280;68102;46.068;18.206;2023-04-03T00:31:53;100079.00;;;5.28;63.86
78603;BME280;68102;46.068;18.206;2023-04-03T00:32:24;100067.81;;;5.26;64.14
78603;BME280;68102;46.068;18.206;2023-04-03T00:32:55;100075.47;;;5.29;64.10
78603;BME280;68102;46.068;18.206;2023-04-03T00:33:26;100083.09;;;5.32;63.59
78603;BME280;68102;46.068;18.206;2023-04-03T00:33:56;100072.84;;;5.29;63.41
78603;BME280;68102;46.068;18.206;2023-04-03T00:34:28;100070.84;;;5.32;63.19
78603;BME280;68102;46.068;18.206;2023-04-03T00:34:59;100063.50;;;5.25;63.50
78603;BME280;68102;46.068;18.206;2023-04-03T00:35:30;100067.59;;;5.29;63.34
78603;BME280;68102;46.068;18.206;2023-04-03T00:36:06;100064.69;;;5.33;63.34
78603;BME280;68102;46.068;18.206;2023-04-03T00:36:37;100070.84;;;5.32;63.21
78603;BME280;68102;46.068;18.206;2023-04-03T00:37:08;100079.34;;;5.36;63.65
78603;BME280;68102;46.068;18.206;2023-04-03T00:37:38;100078.81;;;5.31;63.04
78603;BME280;68102;46.068;18.206;2023-04-03T00:38:09;100081.84;;;5.25;63.21
78603;BME280;68102;46.068;18.206;2023-04-03T00:38:39;100092.53;;;5.34;63.80
78603;BME280;68102;46.068;18.206;2023-04-03T00:39:10;100096.94;;;5.34;63.33
78603;BME280;68102;46.068;18.206;2023-04-03T00:39:41;100078.72;;;5.32;63.64
78603;BME280;68102;46.068;18.206;2023-04-03T00:40:14;100084.59;;;5.36;63.55
78603;BME280;68102;46.068;18.206;2023-04-03T00:40:47;100081.75;;;5.39;63.89
78603;BME280;68102;46.068;18.206;2023-04-03T00:41:18;100093.53;;;5.46;63.12
78603;BME280;68102;46.068;18.206;2023-04-03T00:41:48;100096.16;;;5.46;62.78
78603;BME280;68102;46.068;18.206;2023-04-03T00:42:19;100098.47;;;5.51;62.58
78603;BME280;68102;46.068;18.206;2023-04-03T00:42:56;100090.50;;;5.52;62.65
78603;BME280;68102;46.068;18.206;2023-04-03T00:43:27;100089.47;;;5.55;62.91
78603;BME280;68102;46.068;18.206;2023-04-03T00:43:58;100084.97;;;5.57;62.75
78603;BME280;68102;46.068;18.206;2023-04-03T00:45:43;100083.19;;;5.57;62.10
78603;BME280;68102;46.068;18.206;2023-04-03T00:46:15;100078.06;;;5.56;62.16
78603;BME280;68102;46.068;18.206;2023-04-03T00:46:46;100096.84;;;5.62;62.16
78603;BME280;68102;46.068;18.206;2023-04-03T00:47:17;100098.53;;;5.63;62.25
78603;BME280;68102;46.068;18.206;2023-04-03T00:47:48;100082.09;;;5.61;62.10
78603;BME280;68102;46.068;18.206;2023-04-03T00:48:40;100084.19;;;5.69;62.61
78603;BME280;68102;46.068;18.206;2023-04-03T00:49:11;100081.34;;;5.72;62.19
78603;BME280;68102;46.068;18.206;2023-04-03T00:49:43;100082.94;;;5.74;61.70
78603;BME280;68102;46.068;18.206;2023-04-03T00:50:15;100091.56;;;5.76;61.85
78603;BME280;68102;46.068;18.206;2023-04-03T00:50:46;100085.03;;;5.69;62.15
78603;BME280;68102;46.068;18.206;2023-04-03T00:51:24;100109.03;;;5.76;61.87
78603;BME280;68102;46.068;18.206;2023-04-03T00:51:56;100085.44;;;5.76;61.90
78603;BME280;68102;46.068;18.206;2023-04-03T00:52:30;100079.69;;;5.71;61.70
78603;BME280;68102;46.068;18.206;2023-04-03T00:53:01;100083.59;;;5.78;61.81
78603;BME280;68102;46.068;18.206;2023-04-03T00:53:39;100086.84;;;5.82;60.93
78603;BME280;68102;46.068;18.206;2023-04-03T00:54:11;100088.31;;;5.86;61.63
78603;BME280;68102;46.068;18.206;2023-04-03T00:54:44;100086.44;;;5.88;60.76
78603;BME280;68102;46.068;18.206;2023-04-03T00:55:16;100082.03;;;5.88;60.63
78603;BME280;68102;46.068;18.206;2023-04-03T00:55:48;100085.41;;;5.90;60.85
78603;BME280;68102;46.068;18.206;2023-04-03T00:56:21;100078.69;;;5.86;60.74
78603;BME280;68102;46.068;18.206;2023-04-03T00:56:56;100088.22;;;5.87;60.97
78603;BME280;68102;46.068;18.206;2023-04-03T00:57:28;100097.47;;;5.93;60.95
78603;BME280;68102;46.068;18.206;2023-04-03T00:58:01;100086.06;;;5.94;61.32
78603;BME280;68102;46.068;18.206;2023-04-03T00:58:40;100079.59;;;5.99;61.37
78603;BME280;68102;46.068;18.206;2023-04-03T00:59:25;100085.34;;;6.04;61.22
78603;BME280;68102;46.068;18.206;2023-04-03T01:00:03;100088.06;;;6.03;60.90
78603;BME280;68102;46.068;18.206;2023-04-03T01:00:38;100099.59;;;6.13;60.92
78603;BME280;68102;46.068;18.206;2023-04-03T01:01:16;100096.25;;;6.11;60.94
78603;BME280;68102;46.068;18.206;2023-04-03T01:01:49;100086.41;;;6.02;61.06
78603;BME280;68102;46.068;18.206;2023-04-03T01:02:21;100081.06;;;6.03;60.96
78603;BME280;68102;46.068;18.206;2023-04-03T01:02:53;100086.91;;;6.07;60.68
78603;BME280;68102;46.068;18.206;2023-04-03T01:03:24;100092.25;;;6.05;60.81
78603;BME280;68102;46.068;18.206;2023-04-03T01:03:55;100088.81;;;6.05;60.79
78603;BME280;68102;46.068;18.206;2023-04-03T01:04:35;100096.97;;;6.13;60.85
78603;BME280;68102;46.068;18.206;2023-04-03T01:05:09;100099.59;;;6.13;60.70
78603;BME280;68102;46.068;18.206;2023-04-03T01:05:40;100094.69;;;6.08;60.44
78603;BME280;68102;46.068;18.206;2023-04-03T01:06:13;100092.25;;;6.05;60.44
78603;BME280;68102;46.068;18.206;2023-04-03T01:06:46;100091.53;;;6.03;60.34
78603;BME280;68102;46.068;18.206;2023-04-03T01:07:23;100097.19;;;6.10;60.33
78603;BME280;68102;46.068;18.206;2023-04-03T01:07:55;100097.94;;;6.12;60.45
78603;BME280;68102;46.068;18.206;2023-04-03T01:08:27;100093.44;;;6.14;60.31
78603;BME280;68102;46.068;18.206;2023-04-03T01:08:58;100096.50;;;6.21;60.21
78603;BME280;68102;46.068;18.206;2023-04-03T01:09:30;100101.84;;;6.19;60.36
78603;BME280;68102;46.068;18.206;2023-04-03T01:10:05;100101.63;;;6.22;60.68
78603;BME280;68102;46.068;18.206;2023-04-03T01:10:36;100086.84;;;6.21;60.44
78603;BME280;68102;46.068;18.206;2023-04-03T01:11:07;100094.91;;;6.18;60.00
78603;BME280;68102;46.068;18.206;2023-04-03T01:11:37;100104.88;;;6.26;59.94
78603;BME280;68102;46.068;18.206;2023-04-03T01:12:30;100107.84;;;6.34;60.25
78603;BME280;68102;46.068;18.206;2023-04-03T01:13:27;100109.41;;;6.36;60.05
78603;BME280;68102;46.068;18.206;2023-04-03T01:13:58;100109.19;;;6.40;59.70
78603;BME280;68102;46.068;18.206;2023-04-03T01:14:28;100108.97;;;6.43;59.86
78603;BME280;68102;46.068;18.206;2023-04-03T01:15:10;100117.47;;;6.46;60.10
78603;BME280;68102;46.068;18.206;2023-04-03T01:15:41;100111.38;;;6.46;60.02
78603;BME280;68102;46.068;18.206;2023-04-03T01:16:11;100116.31;;;6.37;59.38
78603;BME280;68102;46.068;18.206;2023-04-03T01:16:42;100111.06;;;6.37;59.91
78603;BME280;68102;46.068;18.206;2023-04-03T01:18:02;100095.25;;;6.39;59.70
78603;BME280;68102;46.068;18.206;2023-04-03T01:18:38;100104.34;;;6.46;59.64
78603;BME280;68102;46.068;18.206;2023-04-03T01:19:15;100095.44;;;6.36;59.40
78603;BME280;68102;46.068;18.206;2023-04-03T01:20:02;100104.78;;;6.40;59.13
78603;BME280;68102;46.068;18.206;2023-04-03T01:22:19;100095.13;;;6.41;59.16
78603;BME280;68102;46.068;18.206;2023-04-03T01:22:59;100109.00;;;6.55;59.29
78603;BME280;68102;46.068;18.206;2023-04-03T01:24:42;100102.78;;;6.56;58.85
78603;BME280;68102;46.068;18.206;2023-04-03T01:25:12;100093.75;;;6.48;58.96
78603;BME280;68102;46.068;18.206;2023-04-03T01:25:45;100103.09;;;6.39;59.13
78603;BME280;68102;46.068;18.206;2023-04-03T01:26:16;100095.34;;;6.37;59.84
78603;BME280;68102;46.068;18.206;2023-04-03T01:26:48;100072.78;;;6.22;60.12
78603;BME280;68102;46.068;18.206;2023-04-03T01:27:19;100086.53;;;6.26;60.18
78603;BME280;68102;46.068;18.206;2023-04-03T01:27:50;100087.34;;;6.26;59.47
78603;BME280;68102;46.068;18.206;2023-04-03T01:28:30;100090.06;;;6.12;59.95
78603;BME280;68102;46.068;18.206;2023-04-03T01:29:02;100104.38;;;6.33;59.78
78603;BME280;68102;46.068;18.206;2023-04-03T01:29:33;100103.84;;;6.41;59.53
78603;BME280;68102;46.068;18.206;2023-04-03T01:30:05;100100.91;;;6.46;59.88
78603;BME280;68102;46.068;18.206;2023-04-03T01:31:59;100115.19;;;6.54;59.63
78603;BME280;68102;46.068;18.206;2023-04-03T01:32:30;100108.38;;;6.52;59.44
78603;BME280;68102;46.068;18.206;2023-04-03T01:33:00;100119.88;;;6.49;59.38
78603;BME280;68102;46.068;18.206;2023-04-03T01:33:31;100112.13;;;6.48;59.36
78603;BME280;68102;46.068;18.206;2023-04-03T01:34:02;100107.41;;;6.40;59.57
78603;BME280;68102;46.068;18.206;2023-04-03T01:34:33;100102.91;;;6.42;60.12
78603;BME280;68102;46.068;18.206;2023-04-03T01:35:07;100099.31;;;6.43;59.84
78603;BME280;68102;46.068;18.206;2023-04-03T01:35:38;100093.34;;;6.41;59.69
78603;BME280;68102;46.068;18.206;2023-04-03T01:36:10;100106.25;;;6.57;59.60
78603;BME280;68102;46.068;18.206;2023-04-03T01:36:43;100092.19;;;6.58;59.11
78603;BME280;68102;46.068;18.206;2023-04-03T01:37:14;100098.91;;;6.62;59.61
78603;BME280;68102;46.068;18.206;2023-04-03T01:37:44;100108.34;;;6.64;59.36
78603;BME280;68102;46.068;18.206;2023-04-03T01:38:15;100100.34;;;6.66;59.43
78603;BME280;68102;46.068;18.206;2023-04-03T01:38:46;100098.69;;;6.65;59.45
78603;BME280;68102;46.068;18.206;2023-04-03T01:39:17;100102.78;;;6.69;59.42
78603;BME280;68102;46.068;18.206;2023-04-03T01:39:48;100106.88;;;6.73;59.42
78603;BME280;68102;46.068;18.206;2023-04-03T01:40:18;100097.63;;;6.67;59.09
78603;BME280;68102;46.068;18.206;2023-04-03T01:40:49;100106.44;;;6.66;59.21
78603;BME280;68102;46.068;18.206;2023-04-03T01:41:20;100102.97;;;6.66;59.94
78603;BME280;68102;46.068;18.206;2023-04-03T01:41:52;100108.66;;;6.60;59.73
78603;BME280;68102;46.068;18.206;2023-04-03T01:42:22;100107.50;;;6.64;59.68
78603;BME280;68102;46.068;18.206;2023-04-03T01:42:53;100104.03;;;6.63;60.20
78603;BME280;68102;46.068;18.206;2023-04-03T01:43:24;100098.06;;;6.61;60.46
78603;BME280;68102;46.068;18.206;2023-04-03T01:43:54;100105.59;;;6.66;59.86
78603;BME280;68102;46.068;18.206;2023-04-03T01:44:25;100103.63;;;6.70;60.71
78603;BME280;68102;46.068;18.206;2023-04-03T01:44:56;100095.13;;;6.66;60.31
78603;BME280;68102;46.068;18.206;2023-04-03T01:45:26;100109.63;;;6.72;60.07
78603;BME280;68102;46.068;18.206;2023-04-03T01:45:57;100104.97;;;6.62;60.09
78603;BME280;68102;46.068;18.206;2023-04-03T01:46:27;100109.09;;;6.54;59.85
78603;BME280;68102;46.068;18.206;2023-04-03T01:46:58;100108.16;;;6.55;60.37
78603;BME280;68102;46.068;18.206;2023-04-03T01:47:29;100100.38;;;6.53;60.33
78603;BME280;68102;46.068;18.206;2023-04-03T01:48:00;100110.97;;;6.64;60.47
78603;BME280;68102;46.068;18.206;2023-04-03T01:48:31;100120.41;;;6.67;60.11
78603;BME280;68102;46.068;18.206;2023-04-03T01:49:02;100104.88;;;6.64;60.37
78603;BME280;68102;46.068;18.206;2023-04-03T01:49:33;100105.81;;;6.63;60.59
78603;BME280;68102;46.068;18.206;2023-04-03T01:50:04;100105.81;;;6.63;60.88
78603;BME280;68102;46.068;18.206;2023-04-03T01:50:53;100109.59;;;6.59;60.50
78603;BME280;68102;46.068;18.206;2023-04-03T01:51:24;100098.16;;;6.60;60.58
78603;BME280;68102;46.068;18.206;2023-04-03T01:51:55;100103.53;;;6.58;60.77
78603;BME280;68102;46.068;18.206;2023-04-03T01:52:25;100104.56;;;6.56;60.59
78603;BME280;68102;46.068;18.206;2023-04-03T01:52:56;100108.78;;;6.58;60.76
78603;BME280;68102;46.068;18.206;2023-04-03T01:53:27;100102.38;;;6.62;60.51
78603;BME280;68102;46.068;18.206;2023-04-03T01:53:57;100103.94;;;6.65;61.12
78603;BME280;68102;46.068;18.206;2023-04-03T01:54:28;100102.03;;;6.67;60.86
78603;BME280;68102;46.068;18.206;2023-04-03T01:54:58;100099.41;;;6.67;60.84
78603;BME280;68102;46.068;18.206;2023-04-03T01:55:29;100098.56;;;6.66;60.57
78603;BME280;68102;46.068;18.206;2023-04-03T01:56:00;100100.34;;;6.66;60.75
78603;BME280;68102;46.068;18.206;2023-04-03T01:56:31;100109.28;;;6.63;60.96
78603;BME280;68102;46.068;18.206;2023-04-03T01:57:01;100104.78;;;6.65;60.96
78603;BME280;68102;46.068;18.206;2023-04-03T01:57:32;100104.56;;;6.68;60.98
78603;BME280;68102;46.068;18.206;2023-04-03T01:58:04;100115.03;;;6.68;60.82
78603;BME280;68102;46.068;18.206;2023-04-03T01:58:35;100111.78;;;6.65;60.89
78603;BME280;68102;46.068;18.206;2023-04-03T01:59:06;100109.72;;;6.70;61.45
78603;BME280;68102;46.068;18.206;2023-04-03T01:59:36;100102.78;;;6.69;61.09
78603;BME280;68102;46.068;18.206;2023-04-03T02:00:07;100097.34;;;6.72;60.58
78603;BME280;68102;46.068;18.206;2023-04-03T02:00:38;100104.97;;;6.75;61.21
78603;BME280;68102;46.068;18.206;2023-04-03T02:01:08;100113.06;;;6.72;60.96
78603;BME280;68102;46.068;18.206;2023-04-03T02:01:39;100110.03;;;6.53;61.29
78603;BME280;68102;46.068;18.206;2023-04-03T02:02:10;100111.72;;;6.54;61.79
78603;BME280;68102;46.068;18.206;2023-04-03T02:02:42;100096.94;;;6.53;61.85
78603;BME280;68102;46.068;18.206;2023-04-03T02:03:13;100110.34;;;6.61;61.34
78603;BME280;68102;46.068;18.206;2023-04-03T02:03:44;100097.94;;;6.63;61.23
78603;BME280;68102;46.068;18.206;2023-04-03T02:04:14;100114.63;;;6.62;61.20
78603;BME280;68102;46.068;18.206;2023-04-03T02:04:46;100095.56;;;6.60;61.65
78603;BME280;68102;46.068;18.206;2023-04-03T02:05:16;100101.41;;;6.63;61.25
78603;BME280;68102;46.068;18.206;2023-04-03T02:05:47;100096.50;;;6.59;61.40
78603;BME280;68102;46.068;18.206;2023-04-03T02:06:18;100111.19;;;6.61;61.23
78603;BME280;68102;46.068;18.206;2023-04-03T02:06:48;100102.38;;;6.62;61.19
78603;BME280;68102;46.068;18.206;2023-04-03T02:07:19;100112.00;;;6.62;61.39
78603;BME280;68102;46.068;18.206;2023-04-03T02:07:49;100118.00;;;6.64;61.22
78603;BME280;68102;46.068;18.206;2023-04-03T02:08:20;100115.47;;;6.62;61.60
78603;BME280;68102;46.068;18.206;2023-04-03T02:08:52;100109.38;;;6.62;61.60
78603;BME280;68102;46.068;18.206;2023-04-03T02:09:23;100104.16;;;6.62;61.79
78603;BME280;68102;46.068;18.206;2023-04-03T02:09:53;100105.81;;;6.63;61.94
78603;BME280;68102;46.068;18.206;2023-04-03T02:10:26;100100.69;;;6.61;61.72
78603;BME280;68102;46.068;18.206;2023-04-03T02:10:56;100099.75;;;6.62;61.33
78603;BME280;68102;46.068;18.206;2023-04-03T02:11:27;100082.13;;;6.52;61.48
78603;BME280;68102;46.068;18.206;2023-04-03T02:11:57;100107.59;;;6.62;61.30
78603;BME280;68102;46.068;18.206;2023-04-03T02:12:28;100101.31;;;6.65;61.23
78603;BME280;68102;46.068;18.206;2023-04-03T02:12:58;100106.97;;;6.59;61.37
78603;BME280;68102;46.068;18.206;2023-04-03T02:13:29;100107.09;;;6.57;61.75
78603;BME280;68102;46.068;18.206;2023-04-03T02:14:00;100094.94;;;6.56;61.47
78603;BME280;68102;46.068;18.206;2023-04-03T02:14:30;100102.38;;;6.62;62.00
78603;BME280;68102;46.068;18.206;2023-04-03T02:15:01;100102.47;;;6.61;61.42
78603;BME280;68102;46.068;18.206;2023-04-03T02:15:31;100104.66;;;6.67;61.63
78603;BME280;68102;46.068;18.206;2023-04-03T02:16:09;100108.97;;;6.68;61.47
78603;BME280;68102;46.068;18.206;2023-04-03T02:16:41;100103.19;;;6.63;61.67
78603;BME280;68102;46.068;18.206;2023-04-03T02:17:12;100103.63;;;6.57;62.12
78603;BME280;68102;46.068;18.206;2023-04-03T02:17:43;100104.78;;;6.53;61.66
78603;BME280;68102;46.068;18.206;2023-04-03T02:18:14;100110.16;;;6.51;62.07
78603;BME280;68102;46.068;18.206;2023-04-03T02:18:45;100105.31;;;6.58;62.21
78603;BME280;68102;46.068;18.206;2023-04-03T02:19:16;100104.16;;;6.62;61.62
78603;BME280;68102;46.068;18.206;2023-04-03T02:19:46;100109.50;;;6.60;62.22
78603;BME280;68102;46.068;18.206;2023-04-03T02:20:17;100112.22;;;6.59;61.83
78603;BME280;68102;46.068;18.206;2023-04-03T02:20:48;100107.81;;;6.59;62.18
78603;BME280;68102;46.068;18.206;2023-04-03T02:21:18;100107.81;;;6.59;61.94
78603;BME280;68102;46.068;18.206;2023-04-03T02:21:49;100106.25;;;6.57;62.21
78603;BME280;68102;46.068;18.206;2023-04-03T02:22:19;100112.13;;;6.60;62.07
78603;BME280;68102;46.068;18.206;2023-04-03T02:22:50;100110.34;;;6.61;61.68
78603;BME280;68102;46.068;18.206;2023-04-03T02:23:21;100102.47;;;6.61;61.93
78603;BME280;68102;46.068;18.206;2023-04-03T02:31:29;100106.78;;;6.62;61.74
78603;BME280;68102;46.068;18.206;2023-04-03T02:32:00;100112.53;;;6.67;61.58
78603;BME280;68102;46.068;18.206;2023-04-03T02:32:32;100108.56;;;6.61;61.83
78603;BME280;68102;46.068;18.206;2023-04-03T02:33:03;100103.13;;;6.52;61.60
78603;BME280;68102;46.068;18.206;2023-04-03T02:33:34;100104.69;;;6.42;61.43
78603;BME280;68102;46.068;18.206;2023-04-03T02:34:06;100095.88;;;6.43;61.82
78603;BME280;68102;46.068;18.206;2023-04-03T02:34:37;100108.25;;;6.53;62.04
78603;BME280;68102;46.068;18.206;2023-04-03T02:35:09;100100.28;;;6.42;62.13
78603;BME280;68102;46.068;18.206;2023-04-03T02:35:39;100117.19;;;6.51;61.74
78603;BME280;68102;46.068;18.206;2023-04-03T02:36:10;100105.81;;;6.50;61.80
78603;BME280;68102;46.068;18.206;2023-04-03T02:36:41;100110.88;;;6.53;61.91
78603;BME280;68102;46.068;18.206;2023-04-03T02:37:11;100103.84;;;6.54;61.83
78603;BME280;68102;46.068;18.206;2023-04-03T02:37:42;100100.91;;;6.46;62.49
78603;BME280;68102;46.068;18.206;2023-04-03T02:38:12;100112.78;;;6.51;61.96
78603;BME280;68102;46.068;18.206;2023-04-03T02:38:44;100121.38;;;6.53;62.21
78603;BME280;68102;46.068;18.206;2023-04-03T02:39:16;100119.97;;;6.48;61.63
78603;BME280;68102;46.068;18.206;2023-04-03T02:39:46;100117.19;;;6.51;61.81
78603;BME280;68102;46.068;18.206;2023-04-03T02:40:17;100115.47;;;6.50;61.75
78603;BME280;68102;46.068;18.206;2023-04-03T02:40:48;100124.09;;;6.52;61.80
78603;BME280;68102;46.068;18.206;2023-04-03T02:41:18;100113.06;;;6.47;61.81
78603;BME280;68102;46.068;18.206;2023-04-03T02:41:49;100097.75;;;6.41;62.17
78603;BME280;68102;46.068;18.206;2023-04-03T02:42:19;100121.47;;;6.52;62.00
78603;BME280;68102;46.068;18.206;2023-04-03T02:42:50;100120.31;;;6.56;61.83
78603;BME280;68102;46.068;18.206;2023-04-03T02:43:21;100113.19;;;6.58;61.82
78603;BME280;68102;46.068;18.206;2023-04-03T02:43:52;100109.81;;;6.56;61.80
78603;BME280;68102;46.068;18.206;2023-04-03T02:44:22;100101.22;;;6.54;62.20
78603;BME280;68102;46.068;18.206;2023-04-03T02:44:53;100111.72;;;6.54;61.77
78603;BME280;68102;46.068;18.206;2023-04-03T02:45:25;100122.41;;;6.63;61.43
78603;BME280;68102;46.068;18.206;2023-04-03T02:45:56;100100.50;;;6.52;61.75
78603;BME280;68102;46.068;18.206;2023-04-03T02:46:27;100117.81;;;6.54;62.09
78603;BME280;68102;46.068;18.206;2023-04-03T02:46:57;100118.41;;;6.58;61.99
78603;BME280;68102;46.068;18.206;2023-04-03T02:47:29;100113.06;;;6.47;61.60
78603;BME280;68102;46.068;18.206;2023-04-03T02:48:00;100125.34;;;6.59;61.48
78603;BME280;68102;46.068;18.206;2023-04-03T02:48:30;100126.91;;;6.61;61.91
78603;BME280;68102;46.068;18.206;2023-04-03T02:49:01;100128.81;;;6.59;61.47
78603;BME280;68102;46.068;18.206;2023-04-03T02:49:32;100123.16;;;6.53;61.36
78603;BME280;68102;46.068;18.206;2023-04-03T02:50:02;100121.16;;;6.56;61.64
78603;BME280;68102;46.068;18.206;2023-04-03T02:50:33;100127.34;;;6.55;61.01
78603;BME280;68102;46.068;18.206;2023-04-03T02:51:04;100127.03;;;6.60;61.12
78603;BME280;68102;46.068;18.206;2023-04-03T02:51:35;100118.31;;;6.59;61.63
78603;BME280;68102;46.068;18.206;2023-04-03T02:52:05;100112.34;;;6.57;61.58
78603;BME280;68102;46.068;18.206;2023-04-03T02:52:36;100125.75;;;6.65;61.31
78603;BME280;68102;46.068;18.206;2023-04-03T02:53:06;100118.72;;;6.66;61.41
78603;BME280;68102;46.068;18.206;2023-04-03T02:53:37;100110.13;;;6.64;61.42
78603;BME280;68102;46.068;18.206;2023-04-03T02:54:08;100118.72;;;6.66;61.65
78603;BME280;68102;46.068;18.206;2023-04-03T02:54:39;100107.19;;;6.68;61.56
78603;BME280;68102;46.068;18.206;2023-04-03T02:55:14;100120.22;;;6.70;61.14
78603;BME280;68102;46.068;18.206;2023-04-03T02:55:46;100117.16;;;6.63;61.19
78603;BME280;68102;46.068;18.206;2023-04-03T02:56:17;100114.22;;;6.68;61.08
78603;BME280;68102;46.068;18.206;2023-04-03T02:56:50;100103.63;;;6.57;61.24
78603;BME280;68102;46.068;18.206;2023-04-03T02:57:20;100101.84;;;6.57;61.19
78603;BME280;68102;46.068;18.206;2023-04-03T02:57:51;100103.41;;;6.60;61.37
78603;BME280;68102;46.068;18.206;2023-04-03T02:58:21;100092.94;;;6.60;61.24
78603;BME280;68102;46.068;18.206;2023-04-03T02:58:53;100127.13;;;6.71;61.22
78603;BME280;68102;46.068;18.206;2023-04-03T02:59:24;100115.47;;;6.62;61.05
78603;BME280;68102;46.068;18.206;2023-04-03T02:59:56;100107.09;;;6.57;61.20
78603;BME280;68102;46.068;18.206;2023-04-03T03:00:26;100096.72;;;6.56;61.55